RYR277 EDJA-EDJA
Flight info
| Callsign | RYR277 |
|---|---|
| Flight time | 0h 40m |
| Altitude | 12000 |
| Route | KPT4B KPT KPT1C |
| Aircraft | B738/M-SDE2E3FGHIRWXY/LB1 |
Departure
| Time | 2026-05-07 13:47 |
|---|---|
| Airport | Memmingen Allgau Airport (EDJA) |
Arrival
| Time | 2026-05-07 14:28 |
|---|---|
| Airport | Memmingen Allgau Airport (EDJA) |
| Time | Latitude | Longitude | Altitude | Speed | Heading |
|---|---|---|---|---|---|
| 2026-05-07 13:14 | 47.98745 | 10.22792 | 2072 ft | 0 kts | 50° |
| 2026-05-07 13:39 | 47.98745 | 10.22794 | 2076 ft | 0 kts | 56° |
| 2026-05-07 13:39 | 47.98744 | 10.22802 | 2072 ft | 2 kts | 92° |
| 2026-05-07 13:40 | 47.98729 | 10.22838 | 2073 ft | 6 kts | 124° |
| 2026-05-07 13:40 | 47.98715 | 10.22893 | 2075 ft | 3 kts | 93° |
| 2026-05-07 13:40 | 47.98716 | 10.22902 | 2076 ft | 0 kts | 84° |
| 2026-05-07 13:41 | 47.98728 | 10.22923 | 2076 ft | 6 kts | 47° |
| 2026-05-07 13:41 | 47.98751 | 10.22971 | 2077 ft | 6 kts | 62° |
| 2026-05-07 13:41 | 47.98771 | 10.23044 | 2078 ft | 11 kts | 71° |
| 2026-05-07 13:41 | 47.98808 | 10.23201 | 2079 ft | 20 kts | 70° |
| 2026-05-07 13:42 | 47.98855 | 10.23392 | 2080 ft | 19 kts | 70° |
| 2026-05-07 13:42 | 47.98900 | 10.23581 | 2074 ft | 20 kts | 71° |
| 2026-05-07 13:42 | 47.98860 | 10.23747 | 2074 ft | 15 kts | 147° |
| 2026-05-07 13:42 | 47.98851 | 10.23871 | 2073 ft | 15 kts | 63° |
| 2026-05-07 13:43 | 47.98918 | 10.24043 | 2071 ft | 24 kts | 59° |
| 2026-05-07 13:43 | 47.99017 | 10.24288 | 2067 ft | 31 kts | 59° |
| 2026-05-07 13:43 | 47.99136 | 10.24587 | 2066 ft | 36 kts | 60° |
| 2026-05-07 13:43 | 47.99245 | 10.24866 | 2065 ft | 12 kts | 59° |
| 2026-05-07 13:44 | 47.99300 | 10.25006 | 2062 ft | 16 kts | 59° |
| 2026-05-07 13:44 | 47.99361 | 10.25168 | 2060 ft | 21 kts | 65° |
| 2026-05-07 13:44 | 47.99404 | 10.25306 | 2057 ft | 7 kts | 51° |
| 2026-05-07 13:44 | 47.99410 | 10.25265 | 2058 ft | 5 kts | 226° |
| 2026-05-07 13:45 | 47.99394 | 10.25236 | 2058 ft | 0 kts | 237° |
| 2026-05-07 13:46 | 47.99385 | 10.25215 | 2059 ft | 8 kts | 237° |
| 2026-05-07 13:46 | 47.99230 | 10.24824 | 2066 ft | 84 kts | 239° |
| 2026-05-07 13:46 | 47.98799 | 10.23743 | 2078 ft | 155 kts | 240° |
| 2026-05-07 13:47 | 47.98192 | 10.22195 | 2476 ft | 189 kts | 241° |
| 2026-05-07 13:47 | 47.97463 | 10.20354 | 2903 ft | 221 kts | 241° |
| 2026-05-07 13:47 | 47.96627 | 10.18268 | 3365 ft | 247 kts | 240° |
| 2026-05-07 13:47 | 47.95693 | 10.15982 | 3894 ft | 262 kts | 239° |
| 2026-05-07 13:48 | 47.94604 | 10.13820 | 4036 ft | 266 kts | 226° |
| 2026-05-07 13:48 | 47.93119 | 10.12283 | 4209 ft | 261 kts | 206° |
| 2026-05-07 13:48 | 47.91382 | 10.11450 | 4185 ft | 260 kts | 197° |
| 2026-05-07 13:48 | 47.89627 | 10.10751 | 3934 ft | 262 kts | 197° |
| 2026-05-07 13:49 | 47.87881 | 10.10112 | 3959 ft | 253 kts | 196° |
| 2026-05-07 13:49 | 47.86162 | 10.09481 | 3991 ft | 249 kts | 197° |
| 2026-05-07 13:49 | 47.84491 | 10.08870 | 4033 ft | 254 kts | 195° |
| 2026-05-07 13:49 | 47.82755 | 10.08248 | 3913 ft | 255 kts | 196° |
| 2026-05-07 13:50 | 47.81070 | 10.07648 | 3936 ft | 251 kts | 195° |
| 2026-05-07 13:50 | 47.79372 | 10.07054 | 4058 ft | 252 kts | 187° |
| 2026-05-07 13:50 | 47.77688 | 10.07610 | 4227 ft | 260 kts | 144° |
| 2026-05-07 13:50 | 47.76696 | 10.09807 | 4390 ft | 262 kts | 99° |
| 2026-05-07 13:51 | 47.76898 | 10.12490 | 4464 ft | 273 kts | 65° |
| 2026-05-07 13:51 | 47.78003 | 10.14812 | 4220 ft | 276 kts | 45° |
| 2026-05-07 13:51 | 47.79310 | 10.16878 | 4059 ft | 270 kts | 44° |
| 2026-05-07 13:51 | 47.80602 | 10.18852 | 3917 ft | 264 kts | 42° |
| 2026-05-07 13:52 | 47.81866 | 10.20746 | 3988 ft | 253 kts | 43° |
| 2026-05-07 13:52 | 47.83114 | 10.22593 | 3936 ft | 253 kts | 42° |
| 2026-05-07 13:52 | 47.84381 | 10.24443 | 3880 ft | 258 kts | 42° |
| 2026-05-07 13:52 | 47.85647 | 10.26358 | 3882 ft | 263 kts | 44° |
| 2026-05-07 13:53 | 47.86876 | 10.28355 | 4039 ft | 258 kts | 46° |
| 2026-05-07 13:53 | 47.88039 | 10.30446 | 3967 ft | 265 kts | 49° |
| 2026-05-07 13:53 | 47.89174 | 10.32631 | 3862 ft | 268 kts | 50° |
| 2026-05-07 13:53 | 47.90308 | 10.34891 | 3612 ft | 270 kts | 52° |
| 2026-05-07 13:54 | 47.91362 | 10.37125 | 3677 ft | 257 kts | 54° |
| 2026-05-07 13:54 | 47.92330 | 10.39256 | 3912 ft | 245 kts | 54° |
| 2026-05-07 13:54 | 47.93292 | 10.41414 | 3987 ft | 261 kts | 55° |
| 2026-05-07 13:54 | 47.94282 | 10.43676 | 3960 ft | 263 kts | 57° |
| 2026-05-07 13:55 | 47.95236 | 10.45918 | 4138 ft | 245 kts | 56° |
| 2026-05-07 13:55 | 47.96119 | 10.48021 | 4140 ft | 241 kts | 56° |
| 2026-05-07 13:55 | 47.97106 | 10.50083 | 3983 ft | 238 kts | 43° |
| 2026-05-07 13:55 | 47.98409 | 10.51440 | 4093 ft | 223 kts | 14° |
| 2026-05-07 13:56 | 47.99937 | 10.51559 | 4060 ft | 223 kts | 343° |
| 2026-05-07 13:56 | 48.01359 | 10.50629 | 3839 ft | 224 kts | 325° |
| 2026-05-07 13:56 | 48.02614 | 10.49311 | 3670 ft | 220 kts | 322° |
| 2026-05-07 13:56 | 48.03812 | 10.47968 | 3528 ft | 210 kts | 320° |
| 2026-05-07 13:57 | 48.04940 | 10.46606 | 3418 ft | 206 kts | 315° |
| 2026-05-07 13:57 | 48.05746 | 10.44911 | 3454 ft | 203 kts | 289° |
| 2026-05-07 13:57 | 48.05880 | 10.42861 | 3630 ft | 195 kts | 261° |
| 2026-05-07 13:57 | 48.05469 | 10.40986 | 3627 ft | 187 kts | 247° |
| 2026-05-07 13:58 | 48.04885 | 10.39228 | 3595 ft | 193 kts | 241° |
| 2026-05-07 13:58 | 48.04192 | 10.37570 | 3602 ft | 184 kts | 240° |
| 2026-05-07 13:58 | 48.03521 | 10.35946 | 3369 ft | 183 kts | 243° |
| 2026-05-07 13:58 | 48.02928 | 10.34250 | 3106 ft | 184 kts | 245° |
| 2026-05-07 13:59 | 48.02323 | 10.32541 | 3025 ft | 192 kts | 241° |
| 2026-05-07 13:59 | 48.01612 | 10.30838 | 2954 ft | 190 kts | 241° |
| 2026-05-07 13:59 | 48.00961 | 10.29214 | 2756 ft | 175 kts | 243° |
| 2026-05-07 13:59 | 48.00374 | 10.27712 | 2443 ft | 160 kts | 242° |
| 2026-05-07 14:00 | 47.99829 | 10.26334 | 2204 ft | 149 kts | 242° |
| 2026-05-07 14:00 | 47.99311 | 10.25027 | 2076 ft | 143 kts | 242° |
| 2026-05-07 14:00 | 47.98841 | 10.23847 | 2073 ft | 122 kts | 239° |
| 2026-05-07 14:00 | 47.98319 | 10.22574 | 2300 ft | 162 kts | 240° |
| 2026-05-07 14:01 | 47.97728 | 10.21094 | 2497 ft | 181 kts | 243° |
| 2026-05-07 14:01 | 47.97059 | 10.19332 | 2777 ft | 205 kts | 241° |
| 2026-05-07 14:01 | 47.96357 | 10.17545 | 3317 ft | 195 kts | 240° |
| 2026-05-07 14:01 | 47.95627 | 10.15765 | 3852 ft | 206 kts | 238° |
| 2026-05-07 14:02 | 47.94452 | 10.14633 | 4234 ft | 215 kts | 186° |
| 2026-05-07 14:02 | 47.93082 | 10.15445 | 4264 ft | 224 kts | 128° |
| 2026-05-07 14:02 | 47.92545 | 10.17548 | 4510 ft | 222 kts | 95° |
| 2026-05-07 14:02 | 47.92752 | 10.19807 | 4650 ft | 228 kts | 69° |
| 2026-05-07 14:03 | 47.93469 | 10.21899 | 4722 ft | 225 kts | 55° |
| 2026-05-07 14:03 | 47.94317 | 10.23892 | 4651 ft | 226 kts | 54° |
| 2026-05-07 14:03 | 47.95185 | 10.25851 | 4527 ft | 224 kts | 54° |
| 2026-05-07 14:03 | 47.96065 | 10.27815 | 4196 ft | 234 kts | 54° |
| 2026-05-07 14:04 | 47.96979 | 10.29836 | 3986 ft | 235 kts | 54° |
| 2026-05-07 14:04 | 47.97881 | 10.31823 | 3929 ft | 227 kts | 54° |
| 2026-05-07 14:04 | 47.98731 | 10.33747 | 3904 ft | 217 kts | 57° |
| 2026-05-07 14:04 | 47.99281 | 10.35825 | 3778 ft | 218 kts | 71° |
| 2026-05-07 14:05 | 47.99775 | 10.38033 | 3433 ft | 225 kts | 64° |
| 2026-05-07 14:05 | 48.00701 | 10.39773 | 3431 ft | 206 kts | 28° |
| 2026-05-07 14:05 | 48.02008 | 10.40257 | 3423 ft | 192 kts | 348° |
| 2026-05-07 14:05 | 48.03103 | 10.39394 | 3489 ft | 172 kts | 309° |
| 2026-05-07 14:06 | 48.03578 | 10.37831 | 3379 ft | 166 kts | 276° |
| 2026-05-07 14:06 | 48.03537 | 10.36694 | 3264 ft | 167 kts | 258° |
| 2026-05-07 14:06 | 48.02948 | 10.34577 | 3153 ft | 166 kts | 247° |
| 2026-05-07 14:06 | 48.02446 | 10.33040 | 3153 ft | 159 kts | 245° |
| 2026-05-07 14:07 | 48.02097 | 10.32101 | 3091 ft | 152 kts | 243° |
| 2026-05-07 14:07 | 48.01567 | 10.30750 | 2885 ft | 147 kts | 243° |
| 2026-05-07 14:07 | 48.01056 | 10.29462 | 2656 ft | 141 kts | 245° |
| 2026-05-07 14:07 | 48.00558 | 10.28176 | 2481 ft | 145 kts | 243° |
| 2026-05-07 14:08 | 48.00040 | 10.26889 | 2305 ft | 142 kts | 242° |
| 2026-05-07 14:08 | 47.99538 | 10.25606 | 2143 ft | 141 kts | 243° |
| 2026-05-07 14:08 | 47.99053 | 10.24379 | 2067 ft | 129 kts | 238° |
| 2026-05-07 14:08 | 47.98575 | 10.23202 | 2168 ft | 149 kts | 242° |
| 2026-05-07 14:09 | 47.97981 | 10.21730 | 2532 ft | 186 kts | 243° |
| 2026-05-07 14:09 | 47.97322 | 10.19948 | 3005 ft | 205 kts | 244° |
| 2026-05-07 14:09 | 47.96677 | 10.18232 | 3331 ft | 174 kts | 240° |
| 2026-05-07 14:09 | 47.96045 | 10.16711 | 3439 ft | 170 kts | 242° |
| 2026-05-07 14:10 | 47.95483 | 10.15191 | 3719 ft | 165 kts | 246° |
| 2026-05-07 14:10 | 47.94950 | 10.13623 | 3919 ft | 174 kts | 246° |
| 2026-05-07 14:10 | 47.94240 | 10.12134 | 4170 ft | 185 kts | 225° |
| 2026-05-07 14:10 | 47.93053 | 10.11296 | 4157 ft | 194 kts | 185° |
| 2026-05-07 14:11 | 47.91768 | 10.11943 | 3958 ft | 205 kts | 138° |
| 2026-05-07 14:11 | 47.91248 | 10.13836 | 3938 ft | 203 kts | 86° |
| 2026-05-07 14:11 | 47.91641 | 10.15821 | 3847 ft | 202 kts | 59° |
| 2026-05-07 14:11 | 47.92409 | 10.17517 | 3919 ft | 192 kts | 53° |
| 2026-05-07 14:12 | 47.93126 | 10.19182 | 3919 ft | 191 kts | 58° |
| 2026-05-07 14:12 | 47.93783 | 10.20874 | 3940 ft | 187 kts | 57° |
| 2026-05-07 14:12 | 47.94436 | 10.22574 | 3850 ft | 191 kts | 58° |
| 2026-05-07 14:12 | 47.95073 | 10.24392 | 3605 ft | 205 kts | 60° |
| 2026-05-07 14:13 | 47.95816 | 10.26534 | 3519 ft | 245 kts | 62° |
| 2026-05-07 14:13 | 47.96562 | 10.28686 | 3865 ft | 223 kts | 60° |
| 2026-05-07 14:13 | 47.97252 | 10.30678 | 4005 ft | 210 kts | 60° |
| 2026-05-07 14:13 | 47.97937 | 10.32574 | 3975 ft | 207 kts | 59° |
| 2026-05-07 14:14 | 47.98629 | 10.34430 | 3970 ft | 204 kts | 58° |
| 2026-05-07 14:14 | 47.99321 | 10.36290 | 3955 ft | 205 kts | 59° |
| 2026-05-07 14:14 | 48.00010 | 10.38148 | 4059 ft | 203 kts | 59° |
| 2026-05-07 14:14 | 48.00842 | 10.39832 | 3922 ft | 207 kts | 32° |
| 2026-05-07 14:15 | 48.02170 | 10.40389 | 3854 ft | 199 kts | 350° |
| 2026-05-07 14:15 | 48.03323 | 10.39431 | 3791 ft | 193 kts | 306° |
| 2026-05-07 14:15 | 48.03829 | 10.37627 | 3891 ft | 187 kts | 275° |
| 2026-05-07 14:15 | 48.03564 | 10.35748 | 3886 ft | 190 kts | 244° |
| 2026-05-07 14:16 | 48.02845 | 10.33996 | 3610 ft | 202 kts | 239° |
| 2026-05-07 14:16 | 48.02110 | 10.32184 | 3387 ft | 206 kts | 242° |
| 2026-05-07 14:16 | 48.01443 | 10.30342 | 3094 ft | 195 kts | 242° |
| 2026-05-07 14:16 | 48.00781 | 10.28731 | 2700 ft | 174 kts | 241° |
| 2026-05-07 14:17 | 48.00198 | 10.27274 | 2398 ft | 157 kts | 242° |
| 2026-05-07 14:17 | 47.99682 | 10.25986 | 2180 ft | 134 kts | 243° |
| 2026-05-07 14:17 | 47.99222 | 10.24816 | 2067 ft | 125 kts | 242° |
| 2026-05-07 14:17 | 47.98806 | 10.23762 | 2077 ft | 128 kts | 239° |
| 2026-05-07 14:18 | 47.98268 | 10.22411 | 2374 ft | 159 kts | 242° |
| 2026-05-07 14:18 | 47.97744 | 10.21133 | 2702 ft | 143 kts | 244° |
| 2026-05-07 14:18 | 47.97230 | 10.19798 | 2707 ft | 150 kts | 244° |
| 2026-05-07 14:18 | 47.96732 | 10.18456 | 2930 ft | 150 kts | 243° |
| 2026-05-07 14:19 | 47.96227 | 10.17066 | 3065 ft | 152 kts | 244° |
| 2026-05-07 14:19 | 47.95688 | 10.15647 | 3247 ft | 163 kts | 240° |
| 2026-05-07 14:19 | 47.95108 | 10.14203 | 3316 ft | 161 kts | 242° |
| 2026-05-07 14:19 | 47.94504 | 10.12816 | 3412 ft | 163 kts | 223° |
| 2026-05-07 14:20 | 47.93414 | 10.12411 | 3552 ft | 172 kts | 166° |
| 2026-05-07 14:20 | 47.92499 | 10.13541 | 3677 ft | 187 kts | 108° |
| 2026-05-07 14:20 | 47.92480 | 10.15491 | 4204 ft | 191 kts | 83° |
| 2026-05-07 14:20 | 47.92628 | 10.17559 | 4117 ft | 202 kts | 83° |
| 2026-05-07 14:21 | 47.92794 | 10.19589 | 4089 ft | 192 kts | 82° |
| 2026-05-07 14:21 | 47.93066 | 10.21469 | 4045 ft | 179 kts | 57° |
| 2026-05-07 14:21 | 47.93676 | 10.23089 | 4109 ft | 184 kts | 59° |
| 2026-05-07 14:21 | 47.94278 | 10.24768 | 4103 ft | 181 kts | 59° |
| 2026-05-07 14:22 | 47.94885 | 10.26418 | 4080 ft | 182 kts | 58° |
| 2026-05-07 14:22 | 47.95471 | 10.28044 | 4087 ft | 181 kts | 59° |
| 2026-05-07 14:22 | 47.96066 | 10.29710 | 4115 ft | 182 kts | 59° |
| 2026-05-07 14:22 | 47.96679 | 10.31383 | 4104 ft | 183 kts | 59° |
| 2026-05-07 14:23 | 47.97290 | 10.33036 | 4115 ft | 181 kts | 59° |
| 2026-05-07 14:23 | 47.97895 | 10.34665 | 4050 ft | 179 kts | 57° |
| 2026-05-07 14:23 | 47.98562 | 10.36202 | 3886 ft | 173 kts | 54° |
| 2026-05-07 14:23 | 47.99203 | 10.37678 | 3660 ft | 166 kts | 53° |
| 2026-05-07 14:24 | 47.99939 | 10.38893 | 3500 ft | 152 kts | 34° |
| 2026-05-07 14:24 | 48.00865 | 10.39661 | 3341 ft | 160 kts | 7° |
| 2026-05-07 14:24 | 48.01966 | 10.39539 | 3468 ft | 162 kts | 336° |
| 2026-05-07 14:24 | 48.02932 | 10.38668 | 3649 ft | 164 kts | 321° |
| 2026-05-07 14:25 | 48.03785 | 10.37557 | 3819 ft | 163 kts | 301° |
| 2026-05-07 14:25 | 48.03993 | 10.35943 | 3654 ft | 167 kts | 254° |
| 2026-05-07 14:25 | 48.03312 | 10.34502 | 3320 ft | 170 kts | 227° |
| 2026-05-07 14:25 | 48.02557 | 10.33223 | 3163 ft | 160 kts | 238° |
| 2026-05-07 14:26 | 48.01993 | 10.31808 | 3012 ft | 156 kts | 244° |
| 2026-05-07 14:26 | 48.01452 | 10.30455 | 2796 ft | 147 kts | 244° |
| 2026-05-07 14:26 | 48.00947 | 10.29176 | 2579 ft | 139 kts | 244° |
| 2026-05-07 14:26 | 48.00448 | 10.27903 | 2419 ft | 143 kts | 243° |
| 2026-05-07 14:27 | 47.99937 | 10.26626 | 2273 ft | 145 kts | 242° |
| 2026-05-07 14:27 | 47.99422 | 10.25322 | 2113 ft | 147 kts | 242° |
| 2026-05-07 14:27 | 47.98944 | 10.24107 | 2070 ft | 114 kts | 239° |
| 2026-05-07 14:27 | 47.98647 | 10.23360 | 2079 ft | 63 kts | 239° |
| 2026-05-07 14:28 | 47.98449 | 10.22863 | 2083 ft | 42 kts | 239° |
| 2026-05-07 14:28 | 47.98360 | 10.22600 | 2087 ft | 17 kts | 286° |
| 2026-05-07 14:28 | 47.98448 | 10.22584 | 2085 ft | 15 kts | 56° |
| 2026-05-07 14:28 | 47.98519 | 10.22695 | 2082 ft | 15 kts | 24° |
| 2026-05-07 14:29 | 47.98621 | 10.22713 | 2079 ft | 15 kts | 2° |
| 2026-05-07 14:29 | 47.98697 | 10.22758 | 2077 ft | 6 kts | 49° |
| 2026-05-07 14:29 | 47.98736 | 10.22780 | 2074 ft | 6 kts | 35° |
| 2026-05-07 14:29 | 47.98747 | 10.22794 | 2075 ft | 0 kts | 44° |